createdAt,value
2019-05-09T00:00:04.005Z,22.55
2019-05-09T00:02:33.997Z,22.90
2019-05-09T00:05:03.572Z,22.80
2019-05-09T00:07:33.710Z,21.20
2019-05-09T00:10:05.129Z,16.82
2019-05-09T00:12:33.805Z,18.50
2019-05-09T00:15:04.759Z,12.40
2019-05-09T00:17:33.904Z,17.75
2019-05-09T00:20:04.395Z,17.30
2019-05-09T00:22:33.416Z,12.63
2019-05-09T00:25:04.718Z,13.35
2019-05-09T00:27:33.305Z,14.85
2019-05-09T00:30:04.227Z,10.88
2019-05-09T00:32:34.458Z,12.43
2019-05-09T00:35:14.158Z,15.60
2019-05-09T00:37:59.187Z,12.43
2019-05-09T00:40:27.732Z,13.43
2019-05-09T00:42:56.352Z,14.78
2019-05-09T00:45:43.854Z,11.78
2019-05-09T00:48:14.252Z,15.13
2019-05-09T00:50:43.719Z,12.37
2019-05-09T00:53:13.791Z,14.33
2019-05-09T00:55:43.661Z,15.80
2019-05-09T00:58:13.572Z,11.38
2019-05-09T01:00:43.960Z,14.95
2019-05-09T01:03:14.194Z,13.48
2019-05-09T01:05:43.677Z,11.63
2019-05-09T01:08:13.708Z,12.28
2019-05-09T01:10:43.634Z,10.20
2019-05-09T01:13:14.224Z,10.82
2019-05-09T01:15:44.032Z,11.90
2019-05-09T01:18:13.306Z,10.68
2019-05-09T01:20:43.982Z,11.57
2019-05-09T01:23:14.213Z,9.20
2019-05-09T01:25:43.606Z,13.90
2019-05-09T01:28:13.927Z,12.25
2019-05-09T01:30:43.809Z,12.90
2019-05-09T01:33:33.274Z,11.05
2019-05-09T01:36:03.745Z,13.08
2019-05-09T01:38:33.882Z,12.68
2019-05-09T01:41:04.074Z,14.13
2019-05-09T01:43:33.731Z,12.50
2019-05-09T01:46:03.895Z,13.32
2019-05-09T01:48:34.137Z,13.35
2019-05-09T01:51:03.944Z,13.80
2019-05-09T01:53:34.057Z,12.53
2019-05-09T01:56:04.236Z,13.72
2019-05-09T01:58:34.244Z,13.78
2019-05-09T02:01:06.462Z,10.58
2019-05-09T02:03:35.061Z,16.62
2019-05-09T02:06:05.943Z,14.63
2019-05-09T02:08:35.321Z,14.63
2019-05-09T02:11:04.966Z,14.64
2019-05-09T02:13:34.737Z,16.00
2019-05-09T02:16:14.243Z,15.63
2019-05-09T02:18:44.451Z,15.53
2019-05-09T02:21:14.547Z,18.53
2019-05-09T02:23:43.494Z,14.58
2019-05-09T02:26:13.530Z,16.47
2019-05-09T02:28:43.276Z,13.98
2019-05-09T02:31:24.545Z,17.53
2019-05-09T02:33:54.171Z,17.37
2019-05-09T02:36:23.214Z,17.98
2019-05-09T02:38:51.778Z,16.95
2019-05-09T02:41:20.316Z,15.03
2019-05-09T02:43:49.776Z,13.88
2019-05-09T02:46:29.063Z,16.13
2019-05-09T02:48:59.146Z,14.18
2019-05-09T02:51:28.963Z,17.15
2019-05-09T02:53:58.582Z,17.00
2019-05-09T02:56:29.481Z,19.70
2019-05-09T02:58:59.071Z,21.85
2019-05-09T03:01:43.549Z,18.73
2019-05-09T03:04:12.076Z,19.82
2019-05-09T03:06:40.610Z,16.35
2019-05-09T03:09:09.293Z,20.92
2019-05-09T03:11:38.808Z,17.45
2019-05-09T03:14:09.106Z,15.93
2019-05-09T03:16:39.727Z,16.17
2019-05-09T03:19:09.360Z,18.08
2019-05-09T03:21:40.646Z,17.65
2019-05-09T03:24:10.025Z,21.70
2019-05-09T03:26:40.414Z,17.02
2019-05-09T03:29:10.536Z,21.12
2019-05-09T03:31:40.697Z,16.60
2019-05-09T03:34:09.692Z,17.45
2019-05-09T03:36:38.610Z,16.10
2019-05-09T03:39:08.679Z,14.30
2019-05-09T03:41:39.526Z,17.50
2019-05-09T03:44:07.700Z,17.55
2019-05-09T03:46:54.951Z,14.45
2019-05-09T03:49:24.805Z,17.73
2019-05-09T03:51:54.920Z,14.35
2019-05-09T03:54:23.394Z,12.53
2019-05-09T03:57:10.026Z,17.87
2019-05-09T03:59:38.510Z,15.35
2019-05-09T04:02:09.866Z,16.87
2019-05-09T04:04:38.363Z,15.63
2019-05-09T04:07:08.382Z,14.83
2019-05-09T04:09:37.481Z,14.87
2019-05-09T04:12:07.610Z,13.35
2019-05-09T04:14:38.412Z,14.85
2019-05-09T04:17:09.955Z,13.03
2019-05-09T04:19:40.492Z,12.35
2019-05-09T04:22:08.684Z,13.95
2019-05-09T04:24:38.205Z,11.85
2019-05-09T04:27:10.134Z,11.78
2019-05-09T04:29:39.371Z,12.18
2019-05-09T04:32:08.154Z,13.95
2019-05-09T04:34:38.073Z,12.28
2019-05-09T04:37:08.074Z,12.80
2019-05-09T04:39:40.496Z,9.68
2019-05-09T04:42:13.495Z,12.65
2019-05-09T04:47:12.378Z,8.65
2019-05-09T04:49:45.019Z,12.25
2019-05-09T04:52:11.067Z,14.35
2019-05-09T04:54:39.521Z,10.60
2019-05-09T04:57:08.094Z,10.55
2019-05-09T04:59:37.392Z,11.55
2019-05-09T05:02:09.429Z,11.03
2019-05-09T05:04:39.607Z,10.75
2019-05-09T05:07:09.477Z,12.55
2019-05-09T05:09:38.115Z,9.90
2019-05-09T05:12:10.134Z,9.00
2019-05-09T05:14:38.695Z,12.35
2019-05-09T05:17:10.954Z,8.90
2019-05-09T05:19:38.357Z,10.50
2019-05-09T05:22:12.339Z,11.57
2019-05-09T05:27:19.286Z,5.97
2019-05-09T05:29:47.759Z,7.03
2019-05-09T05:32:18.043Z,7.87
2019-05-09T05:35:03.133Z,9.03
2019-05-09T05:37:31.833Z,8.50
2019-05-09T05:40:01.120Z,9.60
2019-05-09T05:42:29.650Z,7.00
2019-05-09T05:44:58.407Z,7.25
2019-05-09T05:47:31.382Z,7.53
2019-05-09T05:49:59.904Z,10.47
2019-05-09T05:52:29.888Z,9.98
2019-05-09T05:55:00.435Z,10.27
2019-05-09T05:57:28.879Z,8.90
2019-05-09T05:59:58.579Z,10.65
2019-05-09T06:02:47.868Z,9.83
2019-05-09T06:05:18.739Z,9.23
2019-05-09T06:07:49.592Z,10.65
2019-05-09T06:10:18.837Z,7.92
2019-05-09T06:12:48.164Z,9.88
2019-05-09T06:15:18.370Z,9.58
2019-05-09T06:17:48.421Z,4.70
2019-05-09T06:20:17.873Z,6.28
2019-05-09T06:22:47.721Z,7.40
2019-05-09T06:25:20.667Z,8.90
2019-05-09T06:27:48.755Z,8.58
2019-05-09T06:30:30.356Z,5.75
2019-05-09T06:32:59.871Z,7.62
2019-05-09T06:35:29.199Z,6.03
2019-05-09T06:37:58.841Z,9.48
2019-05-09T06:40:28.664Z,4.08
2019-05-09T06:42:59.903Z,8.10
2019-05-09T06:45:41.849Z,6.03
2019-05-09T06:48:11.406Z,8.73
2019-05-09T06:50:39.956Z,7.28
2019-05-09T06:53:09.740Z,8.33
2019-05-09T06:55:38.617Z,6.25
2019-05-09T06:58:27.557Z,9.73
2019-05-09T07:00:58.399Z,6.12
2019-05-09T07:03:28.971Z,8.98
2019-05-09T07:06:00.448Z,3.67
2019-05-09T07:08:33.948Z,7.67
2019-05-09T07:11:02.682Z,9.70
2019-05-09T07:13:32.911Z,9.08
2019-05-09T07:16:01.503Z,7.37
2019-05-09T07:18:31.404Z,8.45
2019-05-09T07:21:00.790Z,12.35
2019-05-09T07:23:29.373Z,8.05
2019-05-09T07:25:59.593Z,8.53
2019-05-09T07:28:28.329Z,7.72
2019-05-09T07:30:58.547Z,8.85
2019-05-09T07:33:28.797Z,7.05
2019-05-09T07:35:58.059Z,10.55
2019-05-09T07:38:31.824Z,11.08
2019-05-09T07:41:00.733Z,9.75
2019-05-09T07:43:29.312Z,8.23
2019-05-09T07:46:04.437Z,13.60
2019-05-09T07:48:37.917Z,9.75
2019-05-09T07:51:07.883Z,9.67
2019-05-09T07:53:38.088Z,8.95
2019-05-09T07:56:07.928Z,8.85
2019-05-09T07:58:37.746Z,9.23
2019-05-09T08:01:08.549Z,12.25
2019-05-09T08:03:38.465Z,11.65
2019-05-09T08:06:08.723Z,5.83
2019-05-09T08:08:38.595Z,11.97
2019-05-09T08:11:08.853Z,11.88
2019-05-09T08:13:39.792Z,8.88
2019-05-09T08:16:14.112Z,7.87
2019-05-09T08:18:38.377Z,11.75
2019-05-09T08:21:08.451Z,11.45
2019-05-09T08:23:37.965Z,12.63
2019-05-09T08:26:08.739Z,9.00
2019-05-09T08:28:39.013Z,10.13
2019-05-09T08:31:08.313Z,6.92
2019-05-09T08:33:38.110Z,14.30
2019-05-09T08:36:08.625Z,9.25
2019-05-09T08:38:58.615Z,15.83
2019-05-09T08:41:29.074Z,11.15
2019-05-09T08:43:57.707Z,6.28
2019-05-09T08:46:28.619Z,9.38
2019-05-09T08:48:57.595Z,7.75
2019-05-09T08:52:02.963Z,9.43
2019-05-09T08:54:34.827Z,9.80
2019-05-09T08:57:03.299Z,10.00
2019-05-09T08:59:31.824Z,9.43
2019-05-09T09:02:21.035Z,13.25
2019-05-09T09:04:30.653Z,7.92
2019-05-09T09:07:00.773Z,9.78
2019-05-09T09:09:29.334Z,9.53
2019-05-09T09:11:58.465Z,8.35
2019-05-09T09:14:28.197Z,10.35
2019-05-09T09:16:57.682Z,7.85
2019-05-09T09:19:28.038Z,8.33
2019-05-09T09:22:00.515Z,12.47
2019-05-09T09:24:28.309Z,7.15
2019-05-09T09:26:57.501Z,11.12
2019-05-09T09:29:28.214Z,14.63
2019-05-09T09:31:57.607Z,10.25
2019-05-09T09:34:29.948Z,10.35
2019-05-09T09:37:04.170Z,9.88
2019-05-09T09:39:29.609Z,9.30
2019-05-09T09:41:58.687Z,10.32
2019-05-09T09:44:28.778Z,10.93
2019-05-09T09:46:59.099Z,8.28
2019-05-09T09:49:29.355Z,6.90
2019-05-09T09:51:58.267Z,11.40
2019-05-09T09:54:28.675Z,10.53
2019-05-09T09:56:58.576Z,8.53
2019-05-09T09:59:31.927Z,13.30
2019-05-09T10:02:02.082Z,9.10
2019-05-09T10:04:30.972Z,10.72
2019-05-09T10:07:02.417Z,10.95
2019-05-09T10:09:30.866Z,8.58
2019-05-09T10:12:00.744Z,12.82
2019-05-09T10:14:32.625Z,9.28
2019-05-09T10:17:10.423Z,10.63
2019-05-09T10:19:48.181Z,14.73
2019-05-09T10:22:27.836Z,13.43
2019-05-09T10:24:58.589Z,8.88
2019-05-09T10:27:28.406Z,8.18
2019-05-09T10:29:57.501Z,11.12
2019-05-09T10:32:28.557Z,8.38
2019-05-09T10:34:58.062Z,9.60
2019-05-09T10:37:28.457Z,7.58
2019-05-09T10:39:58.063Z,13.40
2019-05-09T10:42:28.822Z,8.05
2019-05-09T10:45:01.638Z,7.28
2019-05-09T10:47:31.866Z,11.40
2019-05-09T10:50:00.362Z,9.58
2019-05-09T10:52:29.307Z,10.30
2019-05-09T10:54:58.133Z,7.37
2019-05-09T10:57:31.895Z,9.73
2019-05-09T10:59:57.954Z,12.98
2019-05-09T11:02:27.935Z,10.03
2019-05-09T11:04:57.681Z,9.85
2019-05-09T11:07:28.743Z,8.63
2019-05-09T11:09:58.748Z,7.12
2019-05-09T11:12:27.589Z,11.73
2019-05-09T11:14:59.148Z,9.95
2019-05-09T11:17:28.379Z,13.15
2019-05-09T11:19:58.712Z,7.42
2019-05-09T11:22:29.224Z,6.08
2019-05-09T11:24:59.270Z,6.83
2019-05-09T11:27:29.250Z,8.05
2019-05-09T11:29:58.334Z,10.08
2019-05-09T11:32:27.732Z,6.35
2019-05-09T11:34:57.628Z,10.25
2019-05-09T11:37:28.005Z,7.97
2019-05-09T11:39:58.116Z,9.20
2019-05-09T11:42:28.547Z,8.60
2019-05-09T11:49:48.621Z,8.90
2019-05-09T11:52:18.391Z,10.93
2019-05-09T11:54:48.250Z,9.75
2019-05-09T11:57:19.129Z,12.20
2019-05-09T11:59:48.006Z,7.05
2019-05-09T12:02:18.033Z,7.53
2019-05-09T12:04:48.669Z,10.88
2019-05-09T12:07:17.902Z,10.55
2019-05-09T12:09:48.849Z,9.03
2019-05-09T12:12:19.351Z,12.68
2019-05-09T12:14:48.424Z,11.55
2019-05-09T12:17:19.678Z,9.68
2019-05-09T12:19:48.918Z,6.30
2019-05-09T12:22:19.122Z,8.67
2019-05-09T12:24:48.158Z,7.67
2019-05-09T12:27:19.770Z,10.90
2019-05-09T12:29:48.441Z,13.78
2019-05-09T12:32:18.693Z,7.80
2019-05-09T12:34:48.014Z,10.25
2019-05-09T12:37:18.235Z,10.18
2019-05-09T12:39:47.992Z,7.95
2019-05-09T12:42:39.641Z,8.23
2019-05-09T12:45:09.847Z,7.20
2019-05-09T12:47:39.704Z,9.88
2019-05-09T12:50:09.192Z,7.92
2019-05-09T12:52:39.282Z,7.83
2019-05-09T12:55:08.433Z,5.33
2019-05-09T12:57:38.671Z,10.70
2019-05-09T13:09:37.853Z,7.17
2019-05-09T13:12:08.441Z,9.08
2019-05-09T13:14:38.183Z,6.67
2019-05-09T13:17:18.544Z,7.62
2019-05-09T13:19:50.868Z,8.28
2019-05-09T13:22:21.600Z,9.00
2019-05-09T13:24:50.186Z,6.67
2019-05-09T13:27:19.546Z,5.60
2019-05-09T13:29:50.514Z,13.13
2019-05-09T13:32:27.927Z,8.27
2019-05-09T13:34:57.915Z,13.80
2019-05-09T13:37:32.017Z,7.72
2019-05-09T13:40:01.517Z,8.23
2019-05-09T13:42:32.608Z,10.65
2019-05-09T13:45:02.669Z,14.00
2019-05-09T13:47:31.123Z,10.93
2019-05-09T13:49:59.650Z,11.08
2019-05-09T13:52:28.349Z,14.98
2019-05-09T14:03:29.277Z,14.35
2019-05-09T14:06:01.824Z,13.32
2019-05-09T14:17:13.703Z,9.13
2019-05-09T14:19:46.911Z,7.78
2019-05-09T14:22:17.615Z,13.32
2019-05-09T14:24:48.558Z,10.08
2019-05-09T14:27:18.896Z,12.15
2019-05-09T14:29:49.949Z,11.90
2019-05-09T14:32:18.470Z,8.25
2019-05-09T14:34:49.866Z,13.30
2019-05-09T14:43:02.188Z,10.25
2019-05-09T14:45:31.767Z,9.38
2019-05-09T14:48:03.264Z,10.43
2019-05-09T14:50:31.777Z,8.73
2019-05-09T14:53:00.268Z,13.13
2019-05-09T14:55:29.594Z,10.40
2019-05-09T14:57:58.068Z,12.80
2019-05-09T15:00:26.712Z,8.00
2019-05-09T15:02:55.245Z,8.90
2019-05-09T15:05:27.737Z,11.05
2019-05-09T15:07:58.885Z,10.47
2019-05-09T15:10:25.766Z,9.10
2019-05-09T15:12:58.391Z,12.23
2019-05-09T15:15:32.605Z,11.10
2019-05-09T15:17:59.777Z,10.38
2019-05-09T15:20:28.388Z,13.30
2019-05-09T15:22:58.769Z,8.88
2019-05-09T15:25:28.122Z,11.05
2019-05-09T15:27:58.164Z,10.48
2019-05-09T15:30:28.687Z,9.43
2019-05-09T15:32:58.749Z,13.00
2019-05-09T15:35:28.126Z,16.85
2019-05-09T15:37:59.016Z,12.40
2019-05-09T15:40:28.472Z,10.55
2019-05-09T15:42:58.797Z,10.78
2019-05-09T15:45:29.200Z,6.67
2019-05-09T15:47:58.413Z,12.00
2019-05-09T15:50:27.815Z,6.30
2019-05-09T15:52:57.966Z,6.70
2019-05-09T15:55:28.355Z,6.50
2019-05-09T15:57:57.814Z,6.42
2019-05-09T16:00:28.339Z,8.05
2019-05-09T16:02:59.026Z,7.62
2019-05-09T16:05:27.097Z,5.87
2019-05-09T16:07:55.647Z,11.25
2019-05-09T16:10:25.513Z,6.97
2019-05-09T16:12:54.373Z,12.28
2019-05-09T16:15:22.827Z,9.85
2019-05-09T16:17:51.342Z,14.28
2019-05-09T16:20:36.349Z,10.85
2019-05-09T16:22:50.071Z,10.25
2019-05-09T16:25:20.152Z,11.65
2019-05-09T16:27:48.779Z,9.58
2019-05-09T16:30:17.446Z,11.97
2019-05-09T16:32:47.890Z,15.72
2019-05-09T16:35:18.285Z,13.20
2019-05-09T16:38:01.765Z,12.23
2019-05-09T16:40:20.789Z,8.35
2019-05-09T16:42:49.325Z,17.55
2019-05-09T16:45:18.456Z,15.20
2019-05-09T16:47:48.514Z,12.82
2019-05-09T16:50:18.799Z,13.83
2019-05-09T16:52:49.072Z,13.30
2019-05-09T16:55:23.893Z,18.52
2019-05-09T16:57:52.364Z,13.18
2019-05-09T17:00:27.312Z,10.40
2019-05-09T17:02:58.798Z,9.43
2019-05-09T17:05:31.774Z,14.95
2019-05-09T17:08:00.283Z,8.63
2019-05-09T17:10:28.791Z,9.35
2019-05-09T17:12:58.259Z,9.60
2019-05-09T17:15:29.193Z,13.28
2019-05-09T17:17:58.153Z,15.23
2019-05-09T17:20:28.679Z,10.70
2019-05-09T17:23:14.748Z,11.68
2019-05-09T17:25:41.009Z,12.40
2019-05-09T17:28:09.540Z,10.43
2019-05-09T17:30:38.548Z,10.43
2019-05-09T17:33:07.896Z,10.23
2019-05-09T17:35:38.606Z,8.70
2019-05-09T17:38:08.716Z,14.65
2019-05-09T17:40:38.989Z,10.83
2019-05-09T17:43:09.251Z,15.18
2019-05-09T17:45:42.101Z,11.10
2019-05-09T17:48:09.023Z,11.30
2019-05-09T17:50:38.410Z,11.70
2019-05-09T17:53:14.311Z,10.20
2019-05-09T17:55:42.880Z,14.65
2019-05-09T17:58:25.852Z,10.13
2019-05-09T18:00:43.379Z,15.75
2019-05-09T18:03:12.010Z,10.57
2019-05-09T18:05:40.743Z,13.43
2019-05-09T18:08:09.212Z,17.05
2019-05-09T18:10:39.226Z,15.05
2019-05-09T18:13:08.165Z,13.55
2019-05-09T18:15:37.913Z,10.30
2019-05-09T18:18:06.738Z,13.55
2019-05-09T18:20:37.711Z,18.23
2019-05-09T18:23:07.869Z,13.35
2019-05-09T18:25:37.755Z,12.53
2019-05-09T18:28:07.515Z,17.98
2019-05-09T18:30:38.865Z,13.70
2019-05-09T18:33:09.440Z,15.00
2019-05-09T18:35:38.145Z,17.65
2019-05-09T18:38:09.651Z,15.18
2019-05-09T18:40:38.419Z,14.35
2019-05-09T18:43:07.695Z,11.70
2019-05-09T18:45:37.609Z,10.98
2019-05-09T18:48:08.289Z,15.08
2019-05-09T18:50:36.523Z,11.60
2019-05-09T18:53:08.909Z,9.80
2019-05-09T18:55:37.374Z,19.95
2019-05-09T18:58:05.850Z,12.28
2019-05-09T19:00:35.427Z,15.17
2019-05-09T19:03:04.850Z,15.93
2019-05-09T19:05:33.312Z,17.15
2019-05-09T19:08:01.863Z,20.82
2019-05-09T19:10:30.432Z,15.38
2019-05-09T19:13:01.768Z,16.32
2019-05-09T19:15:34.745Z,15.25
2019-05-09T19:18:04.906Z,16.40
2019-05-09T19:20:35.066Z,17.07
2019-05-09T19:23:04.611Z,19.73
2019-05-09T19:25:35.374Z,22.27
2019-05-09T19:28:05.213Z,19.03
2019-05-09T19:30:33.818Z,20.40
2019-05-09T19:33:02.408Z,18.70
2019-05-09T19:35:30.874Z,16.73
2019-05-09T19:37:59.335Z,19.12
2019-05-09T19:40:27.817Z,21.25
2019-05-09T19:42:56.351Z,17.48
2019-05-09T19:45:24.824Z,22.22
2019-05-09T19:47:53.330Z,23.73
2019-05-09T19:50:22.575Z,17.62
2019-05-09T19:52:51.084Z,19.50
2019-05-09T19:55:21.232Z,19.85
2019-05-09T19:57:49.700Z,19.33
2019-05-09T20:00:21.617Z,16.10
2019-05-09T20:02:50.161Z,24.02
2019-05-09T20:05:19.775Z,19.55
2019-05-09T20:07:48.259Z,19.30
2019-05-09T20:10:21.468Z,16.50
2019-05-09T20:12:51.635Z,19.67
2019-05-09T20:15:22.278Z,19.37
2019-05-09T20:17:52.283Z,19.75
2019-05-09T20:20:22.622Z,23.47
2019-05-09T20:22:53.154Z,29.10
2019-05-09T20:25:21.520Z,14.70
2019-05-09T20:27:50.014Z,19.52
2019-05-09T20:30:18.815Z,17.50
2019-05-09T20:32:47.311Z,20.35
2019-05-09T20:35:15.938Z,20.08
2019-05-09T20:37:44.688Z,22.00
2019-05-09T20:40:14.447Z,25.80
2019-05-09T20:42:43.093Z,21.57
2019-05-09T20:45:11.805Z,21.33
2019-05-09T20:47:40.505Z,23.03
2019-05-09T20:50:10.690Z,25.37
2019-05-09T20:52:40.884Z,17.17
2019-05-09T20:55:09.610Z,22.55
2019-05-09T20:57:39.712Z,23.73
2019-05-09T21:00:08.591Z,19.70
2019-05-09T21:02:37.318Z,10.80
2019-05-09T21:05:07.092Z,6.97
2019-05-09T21:07:35.737Z,7.60
2019-05-09T21:10:05.942Z,4.45
2019-05-09T21:12:34.579Z,2.70
2019-05-09T21:15:03.613Z,4.42
2019-05-09T21:17:32.272Z,2.02
2019-05-09T21:20:02.061Z,3.25
2019-05-09T21:22:30.764Z,5.05
2019-05-09T21:24:59.480Z,4.50
2019-05-09T21:27:28.120Z,4.12
2019-05-09T21:29:56.783Z,4.20
2019-05-09T21:32:25.511Z,3.15
2019-05-09T21:34:55.149Z,2.27
2019-05-09T21:37:24.756Z,2.77
2019-05-09T21:39:55.107Z,6.03
2019-05-09T21:42:24.311Z,3.15
2019-05-09T21:44:52.771Z,3.98
2019-05-09T21:47:21.295Z,5.53
2019-05-09T21:49:49.765Z,5.12
2019-05-09T21:52:18.315Z,8.90
2019-05-09T21:54:46.796Z,6.03
2019-05-09T21:57:15.292Z,7.42
2019-05-09T21:59:43.813Z,6.17
2019-05-09T22:02:13.346Z,10.13
2019-05-09T22:04:41.827Z,10.72
2019-05-09T22:07:10.294Z,8.20
2019-05-09T22:09:38.934Z,13.68
2019-05-09T22:12:08.096Z,17.07
2019-05-09T22:14:36.629Z,12.35
2019-05-09T22:17:09.427Z,13.45
2019-05-09T22:19:38.086Z,15.33
2019-05-09T22:22:07.393Z,15.15
2019-05-09T22:24:35.863Z,15.00
2019-05-09T22:27:05.243Z,16.62
2019-05-09T22:29:33.769Z,14.47
2019-05-09T22:32:02.240Z,20.30
2019-05-09T22:34:30.812Z,15.38
2019-05-09T22:36:59.339Z,18.42
2019-05-09T22:39:27.828Z,20.60
2019-05-09T22:41:56.335Z,18.82
2019-05-09T22:44:24.864Z,20.17
2019-05-09T22:46:53.333Z,20.73
2019-05-09T22:49:23.503Z,23.05
2019-05-09T22:51:51.980Z,23.60
2019-05-09T22:54:21.404Z,23.03
2019-05-09T22:56:49.945Z,24.27
2019-05-09T22:59:18.542Z,20.95
2019-05-09T23:01:47.017Z,19.20
2019-05-09T23:04:15.590Z,16.25
2019-05-09T23:06:44.051Z,18.62
2019-05-09T23:09:12.513Z,15.43
2019-05-09T23:11:41.065Z,15.43
2019-05-09T23:14:09.543Z,15.18
2019-05-09T23:16:39.872Z,18.55
2019-05-09T23:19:08.356Z,15.45
2019-05-09T23:21:36.899Z,15.50
2019-05-09T23:24:07.169Z,17.92
2019-05-09T23:26:35.654Z,18.55
2019-05-09T23:29:04.649Z,19.12
2019-05-09T23:31:48.384Z,19.27
2019-05-09T23:34:16.884Z,24.23
2019-05-09T23:36:45.378Z,23.67
2019-05-09T23:39:21.703Z,22.67
2019-05-09T23:41:50.162Z,23.42
2019-05-09T23:44:18.626Z,24.75
2019-05-09T23:46:47.121Z,25.08
2019-05-09T23:49:15.573Z,24.25
2019-05-09T23:51:48.867Z,32.17
2019-05-09T23:54:48.184Z,32.78
2019-05-09T23:57:29.226Z,34.30
